Darlington, Missouri
Current Conditions -  °F | °C
As of 3:53 AM on Thursday 23 Oct 2014 (Local Time) from KLWD Reporting Station
Light Rain Light Rain  
Wind Chill: 53°   Ceiling: 6000
Heat Index: 53°   Visibility: 10mi
Dew Point: 50°   Wind: 6mph
Humidity: 89%   Direction: 160°SSE
Pressure: 30.08"   Gusts: NA
Location:  40.2°N, 94.4°W
Report Text: KLWD 230853Z AUTO 16005KT 10SM -RA FEW035 SCT046 OVC060 12/10 A3008 RMK AO2 SLP186 P0013 60016 T01170100 58006
Loading
Personal Weather Stations






























Interactive Weather Map
Tropical Storm Tracking
New forecast layout! Learn more

10-Day Weather Forecast

Advertisements
Track Severe Weather on mobile